sensor_id;sensor_type;location;lat;lon;timestamp;temperature;humidity
18654;DHT22;9456;47.824;16.228;2023-05-10T00:02:06;11.20;92.70
18654;DHT22;9456;47.824;16.228;2023-05-10T00:04:35;11.20;92.80
18654;DHT22;9456;47.824;16.228;2023-05-10T00:07:04;11.20;92.80
18654;DHT22;9456;47.824;16.228;2023-05-10T00:09:33;11.20;92.90
18654;DHT22;9456;47.824;16.228;2023-05-10T00:12:02;11.20;93.10
18654;DHT22;9456;47.824;16.228;2023-05-10T00:14:31;11.20;93.30
18654;DHT22;9456;47.824;16.228;2023-05-10T00:17:01;11.20;93.40
18654;DHT22;9456;47.824;16.228;2023-05-10T00:19:30;11.10;93.90
18654;DHT22;9456;47.824;16.228;2023-05-10T00:21:59;11.20;93.60
18654;DHT22;9456;47.824;16.228;2023-05-10T00:24:28;11.10;93.70
18654;DHT22;9456;47.824;16.228;2023-05-10T00:26:57;11.10;93.90
18654;DHT22;9456;47.824;16.228;2023-05-10T00:29:26;11.10;94.10
18654;DHT22;9456;47.824;16.228;2023-05-10T00:31:56;11.00;94.30
18654;DHT22;9456;47.824;16.228;2023-05-10T00:34:25;11.00;94.30
18654;DHT22;9456;47.824;16.228;2023-05-10T00:36:54;11.00;94.50
18654;DHT22;9456;47.824;16.228;2023-05-10T00:39:23;11.00;94.60
18654;DHT22;9456;47.824;16.228;2023-05-10T00:41:52;11.00;94.80
18654;DHT22;9456;47.824;16.228;2023-05-10T00:44:20;11.00;95.00
18654;DHT22;9456;47.824;16.228;2023-05-10T00:46:51;10.90;95.10
18654;DHT22;9456;47.824;16.228;2023-05-10T00:49:20;10.90;95.20
18654;DHT22;9456;47.824;16.228;2023-05-10T00:51:49;10.90;95.30
18654;DHT22;9456;47.824;16.228;2023-05-10T00:54:19;10.90;95.20
18654;DHT22;9456;47.824;16.228;2023-05-10T00:56:48;11.00;95.20
18654;DHT22;9456;47.824;16.228;2023-05-10T00:59:17;11.00;95.10
18654;DHT22;9456;47.824;16.228;2023-05-10T01:01:46;11.00;95.00
18654;DHT22;9456;47.824;16.228;2023-05-10T01:04:15;11.00;94.90
18654;DHT22;9456;47.824;16.228;2023-05-10T01:06:44;11.00;94.80
18654;DHT22;9456;47.824;16.228;2023-05-10T01:09:13;11.10;94.80
18654;DHT22;9456;47.824;16.228;2023-05-10T01:11:42;11.10;94.60
18654;DHT22;9456;47.824;16.228;2023-05-10T01:14:11;11.10;94.40
18654;DHT22;9456;47.824;16.228;2023-05-10T01:16:40;11.10;94.40
18654;DHT22;9456;47.824;16.228;2023-05-10T01:19:10;11.10;94.20
18654;DHT22;9456;47.824;16.228;2023-05-10T01:21:42;11.10;94.10
18654;DHT22;9456;47.824;16.228;2023-05-10T01:24:35;11.10;94.10
18654;DHT22;9456;47.824;16.228;2023-05-10T01:33:12;11.20;93.80
18654;DHT22;9456;47.824;16.228;2023-05-10T01:35:43;11.20;93.60
18654;DHT22;9456;47.824;16.228;2023-05-10T01:38:15;11.20;93.50
18654;DHT22;9456;47.824;16.228;2023-05-10T01:40:46;11.20;93.40
18654;DHT22;9456;47.824;16.228;2023-05-10T01:43:16;11.20;93.40
18654;DHT22;9456;47.824;16.228;2023-05-10T01:45:45;11.20;93.30
18654;DHT22;9456;47.824;16.228;2023-05-10T01:48:12;11.10;93.30
18654;DHT22;9456;47.824;16.228;2023-05-10T01:50:42;11.10;93.20
18654;DHT22;9456;47.824;16.228;2023-05-10T01:53:11;11.10;93.20
18654;DHT22;9456;47.824;16.228;2023-05-10T01:55:41;11.10;93.20
18654;DHT22;9456;47.824;16.228;2023-05-10T01:58:10;11.10;93.30
18654;DHT22;9456;47.824;16.228;2023-05-10T02:00:41;11.00;93.20
18654;DHT22;9456;47.824;16.228;2023-05-10T02:03:09;11.00;93.30
18654;DHT22;9456;47.824;16.228;2023-05-10T02:05:38;11.00;93.20
18654;DHT22;9456;47.824;16.228;2023-05-10T02:08:07;11.00;93.30
18654;DHT22;9456;47.824;16.228;2023-05-10T02:10:36;11.00;93.30
18654;DHT22;9456;47.824;16.228;2023-05-10T02:13:05;11.00;93.30
18654;DHT22;9456;47.824;16.228;2023-05-10T02:15:34;10.90;93.20
18654;DHT22;9456;47.824;16.228;2023-05-10T02:18:04;10.90;93.20
18654;DHT22;9456;47.824;16.228;2023-05-10T02:20:32;10.90;93.20
18654;DHT22;9456;47.824;16.228;2023-05-10T02:23:01;10.90;93.40
18654;DHT22;9456;47.824;16.228;2023-05-10T02:25:30;10.90;93.00
18654;DHT22;9456;47.824;16.228;2023-05-10T02:28:00;10.90;93.00
18654;DHT22;9456;47.824;16.228;2023-05-10T02:30:28;10.90;93.00
18654;DHT22;9456;47.824;16.228;2023-05-10T02:32:57;10.90;93.00
18654;DHT22;9456;47.824;16.228;2023-05-10T02:35:26;10.90;93.20
18654;DHT22;9456;47.824;16.228;2023-05-10T02:37:55;10.90;92.70
18654;DHT22;9456;47.824;16.228;2023-05-10T02:40:24;10.90;92.70
18654;DHT22;9456;47.824;16.228;2023-05-10T02:42:54;10.90;92.60
18654;DHT22;9456;47.824;16.228;2023-05-10T02:45:23;10.90;92.50
18654;DHT22;9456;47.824;16.228;2023-05-10T02:47:51;10.90;92.40
18654;DHT22;9456;47.824;16.228;2023-05-10T02:50:21;10.90;92.40
18654;DHT22;9456;47.824;16.228;2023-05-10T02:52:51;11.00;92.40
18654;DHT22;9456;47.824;16.228;2023-05-10T02:55:21;10.90;92.30
18654;DHT22;9456;47.824;16.228;2023-05-10T02:57:50;10.90;92.20
18654;DHT22;9456;47.824;16.228;2023-05-10T03:00:20;11.00;92.20
18654;DHT22;9456;47.824;16.228;2023-05-10T03:02:49;11.00;92.20
18654;DHT22;9456;47.824;16.228;2023-05-10T03:05:18;11.00;92.20
18654;DHT22;9456;47.824;16.228;2023-05-10T03:07:47;10.90;92.30
18654;DHT22;9456;47.824;16.228;2023-05-10T03:10:16;10.90;92.30
18654;DHT22;9456;47.824;16.228;2023-05-10T03:12:55;10.90;92.20
18654;DHT22;9456;47.824;16.228;2023-05-10T03:15:25;11.00;92.60
18654;DHT22;9456;47.824;16.228;2023-05-10T03:17:54;10.90;92.30
18654;DHT22;9456;47.824;16.228;2023-05-10T03:20:24;10.90;92.40
18654;DHT22;9456;47.824;16.228;2023-05-10T03:22:53;10.90;92.40
18654;DHT22;9456;47.824;16.228;2023-05-10T03:25:21;10.80;92.50
18654;DHT22;9456;47.824;16.228;2023-05-10T03:27:50;10.80;92.50
18654;DHT22;9456;47.824;16.228;2023-05-10T03:30:20;10.80;92.60
18654;DHT22;9456;47.824;16.228;2023-05-10T03:32:49;10.80;92.70
18654;DHT22;9456;47.824;16.228;2023-05-10T03:35:18;10.80;92.70
18654;DHT22;9456;47.824;16.228;2023-05-10T03:37:47;10.80;92.80
18654;DHT22;9456;47.824;16.228;2023-05-10T03:40:16;10.80;92.80
18654;DHT22;9456;47.824;16.228;2023-05-10T03:42:45;10.80;92.90
18654;DHT22;9456;47.824;16.228;2023-05-10T03:45:14;10.80;92.90
18654;DHT22;9456;47.824;16.228;2023-05-10T03:47:43;11.00;92.80
18654;DHT22;9456;47.824;16.228;2023-05-10T03:50:12;11.10;92.50
18654;DHT22;9456;47.824;16.228;2023-05-10T03:52:42;11.20;92.20
18654;DHT22;9456;47.824;16.228;2023-05-10T03:55:11;11.40;92.00
18654;DHT22;9456;47.824;16.228;2023-05-10T03:57:40;11.60;91.50
18654;DHT22;9456;47.824;16.228;2023-05-10T04:00:10;11.70;91.00
18654;DHT22;9456;47.824;16.228;2023-05-10T04:02:40;11.90;90.60
18654;DHT22;9456;47.824;16.228;2023-05-10T04:05:11;12.00;90.30
18654;DHT22;9456;47.824;16.228;2023-05-10T04:07:40;12.10;90.10
18654;DHT22;9456;47.824;16.228;2023-05-10T04:10:10;12.20;89.80
18654;DHT22;9456;47.824;16.228;2023-05-10T04:12:39;12.30;89.90
18654;DHT22;9456;47.824;16.228;2023-05-10T04:15:10;12.40;88.90
18654;DHT22;9456;47.824;16.228;2023-05-10T04:17:39;12.50;88.10
18654;DHT22;9456;47.824;16.228;2023-05-10T04:20:10;12.70;86.90
18654;DHT22;9456;47.824;16.228;2023-05-10T04:22:39;12.90;86.00
18654;DHT22;9456;47.824;16.228;2023-05-10T04:25:09;13.10;85.20
18654;DHT22;9456;47.824;16.228;2023-05-10T04:27:38;13.20;84.60
18654;DHT22;9456;47.824;16.228;2023-05-10T04:30:09;13.40;84.10
18654;DHT22;9456;47.824;16.228;2023-05-10T04:32:37;13.50;82.80
18654;DHT22;9456;47.824;16.228;2023-05-10T04:35:08;13.50;82.40
18654;DHT22;9456;47.824;16.228;2023-05-10T04:37:37;13.60;82.20
18654;DHT22;9456;47.824;16.228;2023-05-10T04:40:09;13.70;81.90
18654;DHT22;9456;47.824;16.228;2023-05-10T04:42:38;13.80;81.80
18654;DHT22;9456;47.824;16.228;2023-05-10T04:45:08;14.00;80.70
18654;DHT22;9456;47.824;16.228;2023-05-10T04:47:38;14.20;80.70
18654;DHT22;9456;47.824;16.228;2023-05-10T04:50:08;14.40;79.60
18654;DHT22;9456;47.824;16.228;2023-05-10T04:52:37;14.80;78.30
18654;DHT22;9456;47.824;16.228;2023-05-10T04:55:08;15.20;76.20
18654;DHT22;9456;47.824;16.228;2023-05-10T04:57:37;15.50;75.20
18654;DHT22;9456;47.824;16.228;2023-05-10T05:00:08;15.90;74.20
18654;DHT22;9456;47.824;16.228;2023-05-10T05:02:37;16.20;72.60
18654;DHT22;9456;47.824;16.228;2023-05-10T05:05:07;16.40;71.90
18654;DHT22;9456;47.824;16.228;2023-05-10T05:07:36;16.50;69.80
18654;DHT22;9456;47.824;16.228;2023-05-10T05:10:07;16.50;70.70
18654;DHT22;9456;47.824;16.228;2023-05-10T05:12:36;16.90;69.80
18654;DHT22;9456;47.824;16.228;2023-05-10T05:15:07;17.40;68.40
18654;DHT22;9456;47.824;16.228;2023-05-10T05:17:37;17.50;66.50
18654;DHT22;9456;47.824;16.228;2023-05-10T05:20:07;17.60;66.50
18654;DHT22;9456;47.824;16.228;2023-05-10T05:22:37;17.60;65.70
18654;DHT22;9456;47.824;16.228;2023-05-10T05:25:08;17.40;66.60
18654;DHT22;9456;47.824;16.228;2023-05-10T05:27:37;17.20;67.10
18654;DHT22;9456;47.824;16.228;2023-05-10T05:30:08;17.10;67.40
18654;DHT22;9456;47.824;16.228;2023-05-10T05:32:38;17.10;67.50
18654;DHT22;9456;47.824;16.228;2023-05-10T05:35:08;17.40;67.30
18654;DHT22;9456;47.824;16.228;2023-05-10T05:37:37;17.60;66.70
18654;DHT22;9456;47.824;16.228;2023-05-10T05:40:11;17.40;66.40
18654;DHT22;9456;47.824;16.228;2023-05-10T05:42:37;17.00;67.20
18654;DHT22;9456;47.824;16.228;2023-05-10T05:45:07;17.00;68.30
18654;DHT22;9456;47.824;16.228;2023-05-10T05:47:36;17.00;67.60
18654;DHT22;9456;47.824;16.228;2023-05-10T05:50:06;17.10;67.00
18654;DHT22;9456;47.824;16.228;2023-05-10T05:52:35;17.30;67.90
18654;DHT22;9456;47.824;16.228;2023-05-10T05:55:05;17.50;66.90
18654;DHT22;9456;47.824;16.228;2023-05-10T05:57:34;17.50;67.10
18654;DHT22;9456;47.824;16.228;2023-05-10T06:00:04;17.70;66.80
18654;DHT22;9456;47.824;16.228;2023-05-10T06:02:33;17.80;67.00
18654;DHT22;9456;47.824;16.228;2023-05-10T06:05:02;18.10;65.00
18654;DHT22;9456;47.824;16.228;2023-05-10T06:07:31;18.00;63.70
18654;DHT22;9456;47.824;16.228;2023-05-10T06:10:00;18.20;65.30
18654;DHT22;9456;47.824;16.228;2023-05-10T06:12:29;18.30;63.00
18654;DHT22;9456;47.824;16.228;2023-05-10T06:14:58;18.30;63.30
18654;DHT22;9456;47.824;16.228;2023-05-10T06:17:27;18.30;61.80
18654;DHT22;9456;47.824;16.228;2023-05-10T06:19:56;18.30;61.50
18654;DHT22;9456;47.824;16.228;2023-05-10T06:22:25;18.50;60.40
18654;DHT22;9456;47.824;16.228;2023-05-10T06:24:54;18.40;59.40
18654;DHT22;9456;47.824;16.228;2023-05-10T06:27:23;18.60;58.40
18654;DHT22;9456;47.824;16.228;2023-05-10T06:29:52;19.00;57.30
18654;DHT22;9456;47.824;16.228;2023-05-10T06:32:21;18.90;56.40
18654;DHT22;9456;47.824;16.228;2023-05-10T06:34:50;18.80;57.30
18654;DHT22;9456;47.824;16.228;2023-05-10T06:37:18;19.00;57.10
18654;DHT22;9456;47.824;16.228;2023-05-10T06:39:47;19.40;54.80
18654;DHT22;9456;47.824;16.228;2023-05-10T06:42:16;19.80;53.10
18654;DHT22;9456;47.824;16.228;2023-05-10T06:44:45;20.10;53.00
18654;DHT22;9456;47.824;16.228;2023-05-10T06:47:14;20.00;51.10
18654;DHT22;9456;47.824;16.228;2023-05-10T06:49:43;20.20;50.20
18654;DHT22;9456;47.824;16.228;2023-05-10T06:52:12;20.60;50.50
18654;DHT22;9456;47.824;16.228;2023-05-10T06:54:41;20.80;48.80
18654;DHT22;9456;47.824;16.228;2023-05-10T06:57:10;20.80;48.60
18654;DHT22;9456;47.824;16.228;2023-05-10T06:59:39;21.00;48.70
18654;DHT22;9456;47.824;16.228;2023-05-10T07:02:08;21.30;47.40
18654;DHT22;9456;47.824;16.228;2023-05-10T07:04:37;22.00;47.30
18654;DHT22;9456;47.824;16.228;2023-05-10T07:07:06;22.60;46.00
18654;DHT22;9456;47.824;16.228;2023-05-10T07:09:35;23.10;45.20
18654;DHT22;9456;47.824;16.228;2023-05-10T07:12:05;23.10;43.00
18654;DHT22;9456;47.824;16.228;2023-05-10T07:14:34;22.70;44.20
18654;DHT22;9456;47.824;16.228;2023-05-10T07:17:03;22.60;43.20
18654;DHT22;9456;47.824;16.228;2023-05-10T07:19:30;22.30;43.40
18654;DHT22;9456;47.824;16.228;2023-05-10T07:21:59;22.40;44.30
18654;DHT22;9456;47.824;16.228;2023-05-10T07:24:28;22.30;43.80
18654;DHT22;9456;47.824;16.228;2023-05-10T07:26:57;22.10;44.20
18654;DHT22;9456;47.824;16.228;2023-05-10T07:29:26;22.10;43.70
18654;DHT22;9456;47.824;16.228;2023-05-10T07:31:55;22.10;44.70
18654;DHT22;9456;47.824;16.228;2023-05-10T07:34:24;22.10;44.20
18654;DHT22;9456;47.824;16.228;2023-05-10T07:36:53;22.30;44.20
18654;DHT22;9456;47.824;16.228;2023-05-10T07:39:22;22.70;45.00
18654;DHT22;9456;47.824;16.228;2023-05-10T07:41:51;23.00;42.30
18654;DHT22;9456;47.824;16.228;2023-05-10T07:44:23;23.00;42.60
18654;DHT22;9456;47.824;16.228;2023-05-10T07:46:52;23.00;42.40
18654;DHT22;9456;47.824;16.228;2023-05-10T07:49:21;22.80;42.40
18654;DHT22;9456;47.824;16.228;2023-05-10T07:51:50;22.60;43.40
18654;DHT22;9456;47.824;16.228;2023-05-10T07:54:19;23.20;42.20
18654;DHT22;9456;47.824;16.228;2023-05-10T07:56:48;23.20;40.10
18654;DHT22;9456;47.824;16.228;2023-05-10T07:59:17;22.90;40.80
18654;DHT22;9456;47.824;16.228;2023-05-10T08:01:46;22.60;41.60
18654;DHT22;9456;47.824;16.228;2023-05-10T08:04:15;22.30;41.30
18654;DHT22;9456;47.824;16.228;2023-05-10T08:06:44;22.20;41.40
18654;DHT22;9456;47.824;16.228;2023-05-10T08:09:13;21.90;41.10
18654;DHT22;9456;47.824;16.228;2023-05-10T08:11:42;22.20;41.30
18654;DHT22;9456;47.824;16.228;2023-05-10T08:14:10;22.50;41.40
18654;DHT22;9456;47.824;16.228;2023-05-10T08:16:39;22.70;40.20
18654;DHT22;9456;47.824;16.228;2023-05-10T08:19:08;22.70;39.50
18654;DHT22;9456;47.824;16.228;2023-05-10T08:21:37;22.50;40.00
18654;DHT22;9456;47.824;16.228;2023-05-10T08:24:07;22.40;40.40
18654;DHT22;9456;47.824;16.228;2023-05-10T08:26:36;22.40;39.30
18654;DHT22;9456;47.824;16.228;2023-05-10T08:29:05;22.10;38.40
18654;DHT22;9456;47.824;16.228;2023-05-10T08:31:34;22.00;40.20
18654;DHT22;9456;47.824;16.228;2023-05-10T08:34:03;22.20;39.50
18654;DHT22;9456;47.824;16.228;2023-05-10T08:36:32;22.20;39.70
18654;DHT22;9456;47.824;16.228;2023-05-10T08:39:01;22.10;39.20
18654;DHT22;9456;47.824;16.228;2023-05-10T08:41:30;22.10;39.00
18654;DHT22;9456;47.824;16.228;2023-05-10T08:43:59;22.30;38.10
18654;DHT22;9456;47.824;16.228;2023-05-10T08:46:28;22.50;36.80
18654;DHT22;9456;47.824;16.228;2023-05-10T08:48:57;22.60;37.90
18654;DHT22;9456;47.824;16.228;2023-05-10T08:51:25;22.90;38.20
18654;DHT22;9456;47.824;16.228;2023-05-10T08:53:55;23.20;37.60
18654;DHT22;9456;47.824;16.228;2023-05-10T08:56:24;23.30;38.90
18654;DHT22;9456;47.824;16.228;2023-05-10T08:58:53;22.90;36.30
18654;DHT22;9456;47.824;16.228;2023-05-10T09:01:22;22.80;36.40
18654;DHT22;9456;47.824;16.228;2023-05-10T09:03:51;23.20;37.30
18654;DHT22;9456;47.824;16.228;2023-05-10T09:06:20;23.30;35.40
18654;DHT22;9456;47.824;16.228;2023-05-10T09:08:49;23.30;36.70
18654;DHT22;9456;47.824;16.228;2023-05-10T09:11:18;23.10;36.80
18654;DHT22;9456;47.824;16.228;2023-05-10T09:13:48;23.10;37.50
18654;DHT22;9456;47.824;16.228;2023-05-10T09:16:16;23.20;37.60
18654;DHT22;9456;47.824;16.228;2023-05-10T09:18:45;23.20;37.10
18654;DHT22;9456;47.824;16.228;2023-05-10T09:21:14;22.90;37.70
18654;DHT22;9456;47.824;16.228;2023-05-10T09:23:45;22.60;39.90
18654;DHT22;9456;47.824;16.228;2023-05-10T09:26:13;22.80;42.70
18654;DHT22;9456;47.824;16.228;2023-05-10T09:28:52;22.80;42.70
18654;DHT22;9456;47.824;16.228;2023-05-10T09:31:21;23.10;42.20
18654;DHT22;9456;47.824;16.228;2023-05-10T09:33:50;24.10;40.10
18654;DHT22;9456;47.824;16.228;2023-05-10T09:36:19;24.60;38.20
18654;DHT22;9456;47.824;16.228;2023-05-10T09:38:49;24.80;37.30
18654;DHT22;9456;47.824;16.228;2023-05-10T09:41:18;24.80;35.90
18654;DHT22;9456;47.824;16.228;2023-05-10T09:43:47;24.30;38.00
18654;DHT22;9456;47.824;16.228;2023-05-10T09:46:17;24.40;37.80
18654;DHT22;9456;47.824;16.228;2023-05-10T09:48:46;23.30;39.70
18654;DHT22;9456;47.824;16.228;2023-05-10T09:51:20;22.60;40.40
18654;DHT22;9456;47.824;16.228;2023-05-10T09:53:49;22.50;40.80
18654;DHT22;9456;47.824;16.228;2023-05-10T09:56:33;22.30;42.50
18654;DHT22;9456;47.824;16.228;2023-05-10T09:59:04;21.90;43.10
18654;DHT22;9456;47.824;16.228;2023-05-10T10:01:32;21.40;44.00
18654;DHT22;9456;47.824;16.228;2023-05-10T10:03:59;21.30;45.40
18654;DHT22;9456;47.824;16.228;2023-05-10T10:06:29;21.10;45.20
18654;DHT22;9456;47.824;16.228;2023-05-10T10:09:02;20.70;46.60
18654;DHT22;9456;47.824;16.228;2023-05-10T10:11:30;20.40;47.50
18654;DHT22;9456;47.824;16.228;2023-05-10T10:13:58;20.50;49.10
18654;DHT22;9456;47.824;16.228;2023-05-10T10:16:27;21.00;48.50
18654;DHT22;9456;47.824;16.228;2023-05-10T10:18:56;21.80;47.20
18654;DHT22;9456;47.824;16.228;2023-05-10T10:21:25;22.40;46.00
18654;DHT22;9456;47.824;16.228;2023-05-10T10:23:54;22.20;46.50
18654;DHT22;9456;47.824;16.228;2023-05-10T10:26:23;22.20;46.30
18654;DHT22;9456;47.824;16.228;2023-05-10T10:28:51;22.20;44.20
18654;DHT22;9456;47.824;16.228;2023-05-10T10:31:21;21.90;43.80
18654;DHT22;9456;47.824;16.228;2023-05-10T10:33:55;21.90;44.80
18654;DHT22;9456;47.824;16.228;2023-05-10T10:36:20;21.80;45.00
18654;DHT22;9456;47.824;16.228;2023-05-10T10:38:57;22.10;46.10
18654;DHT22;9456;47.824;16.228;2023-05-10T10:41:31;21.60;47.20
18654;DHT22;9456;47.824;16.228;2023-05-10T10:47:01;20.40;48.70
18654;DHT22;9456;47.824;16.228;2023-05-10T10:49:31;19.90;48.40
18654;DHT22;9456;47.824;16.228;2023-05-10T10:52:22;19.80;45.60
18654;DHT22;9456;47.824;16.228;2023-05-10T10:54:56;19.90;48.10
18654;DHT22;9456;47.824;16.228;2023-05-10T10:57:23;20.10;50.40
18654;DHT22;9456;47.824;16.228;2023-05-10T10:59:53;19.90;49.20
18654;DHT22;9456;47.824;16.228;2023-05-10T11:02:44;19.40;50.30
18654;DHT22;9456;47.824;16.228;2023-05-10T11:05:50;19.30;50.80
18654;DHT22;9456;47.824;16.228;2023-05-10T11:08:25;19.60;50.80
18654;DHT22;9456;47.824;16.228;2023-05-10T11:11:03;19.60;50.80
18654;DHT22;9456;47.824;16.228;2023-05-10T11:13:32;19.70;51.30
18654;DHT22;9456;47.824;16.228;2023-05-10T11:16:10;20.00;50.00
18654;DHT22;9456;47.824;16.228;2023-05-10T11:18:39;20.00;49.20
18654;DHT22;9456;47.824;16.228;2023-05-10T11:21:09;20.00;48.10
18654;DHT22;9456;47.824;16.228;2023-05-10T11:23:49;19.80;49.00
18654;DHT22;9456;47.824;16.228;2023-05-10T11:29:03;19.70;50.40
18654;DHT22;9456;47.824;16.228;2023-05-10T11:31:32;19.50;49.80
18654;DHT22;9456;47.824;16.228;2023-05-10T11:34:01;19.50;50.80
18654;DHT22;9456;47.824;16.228;2023-05-10T11:36:32;19.70;51.20
18654;DHT22;9456;47.824;16.228;2023-05-10T11:38:59;19.70;51.50
18654;DHT22;9456;47.824;16.228;2023-05-10T11:41:28;19.80;50.40
18654;DHT22;9456;47.824;16.228;2023-05-10T11:43:57;20.10;50.30
18654;DHT22;9456;47.824;16.228;2023-05-10T11:46:27;20.00;50.10
18654;DHT22;9456;47.824;16.228;2023-05-10T11:48:57;19.90;50.00
18654;DHT22;9456;47.824;16.228;2023-05-10T11:51:25;19.70;51.20
18654;DHT22;9456;47.824;16.228;2023-05-10T11:53:55;19.50;51.30
18654;DHT22;9456;47.824;16.228;2023-05-10T11:56:23;19.50;51.30
18654;DHT22;9456;47.824;16.228;2023-05-10T11:58:54;19.40;51.50
18654;DHT22;9456;47.824;16.228;2023-05-10T12:01:23;19.20;51.60
18654;DHT22;9456;47.824;16.228;2023-05-10T12:03:52;19.10;51.60
18654;DHT22;9456;47.824;16.228;2023-05-10T12:06:21;19.20;51.80
18654;DHT22;9456;47.824;16.228;2023-05-10T12:08:50;19.20;51.10
18654;DHT22;9456;47.824;16.228;2023-05-10T12:11:23;19.40;50.90
18654;DHT22;9456;47.824;16.228;2023-05-10T12:13:50;19.40;48.60
18654;DHT22;9456;47.824;16.228;2023-05-10T12:16:19;19.20;50.30
18654;DHT22;9456;47.824;16.228;2023-05-10T12:18:50;19.10;50.50
18654;DHT22;9456;47.824;16.228;2023-05-10T12:21:19;19.00;50.10
18654;DHT22;9456;47.824;16.228;2023-05-10T12:23:49;19.10;50.20
18654;DHT22;9456;47.824;16.228;2023-05-10T12:26:17;19.40;49.70
18654;DHT22;9456;47.824;16.228;2023-05-10T12:28:46;19.10;50.20
18654;DHT22;9456;47.824;16.228;2023-05-10T12:31:15;19.20;50.70
18654;DHT22;9456;47.824;16.228;2023-05-10T12:33:44;19.20;49.80
18654;DHT22;9456;47.824;16.228;2023-05-10T12:36:14;19.10;50.20
18654;DHT22;9456;47.824;16.228;2023-05-10T12:38:43;19.00;50.90
18654;DHT22;9456;47.824;16.228;2023-05-10T12:41:13;19.20;51.20
18654;DHT22;9456;47.824;16.228;2023-05-10T12:43:40;19.30;50.40
18654;DHT22;9456;47.824;16.228;2023-05-10T12:46:09;19.20;50.10
18654;DHT22;9456;47.824;16.228;2023-05-10T12:48:38;19.20;50.50
18654;DHT22;9456;47.824;16.228;2023-05-10T12:51:07;19.10;50.80
18654;DHT22;9456;47.824;16.228;2023-05-10T12:53:37;19.20;51.10
18654;DHT22;9456;47.824;16.228;2023-05-10T12:56:07;19.30;50.90
18654;DHT22;9456;47.824;16.228;2023-05-10T12:58:36;19.40;51.30
18654;DHT22;9456;47.824;16.228;2023-05-10T13:01:05;19.40;50.30
18654;DHT22;9456;47.824;16.228;2023-05-10T13:03:34;19.50;49.70
18654;DHT22;9456;47.824;16.228;2023-05-10T13:06:04;19.70;50.20
18654;DHT22;9456;47.824;16.228;2023-05-10T13:08:33;19.90;49.60
18654;DHT22;9456;47.824;16.228;2023-05-10T13:11:01;19.60;49.90
18654;DHT22;9456;47.824;16.228;2023-05-10T13:13:31;19.40;50.30
18654;DHT22;9456;47.824;16.228;2023-05-10T13:15:59;19.40;50.40
18654;DHT22;9456;47.824;16.228;2023-05-10T13:18:27;19.30;49.40
18654;DHT22;9456;47.824;16.228;2023-05-10T13:20:54;19.50;50.40
18654;DHT22;9456;47.824;16.228;2023-05-10T13:23:23;19.70;50.50
18654;DHT22;9456;47.824;16.228;2023-05-10T13:25:50;19.90;49.30
18654;DHT22;9456;47.824;16.228;2023-05-10T13:28:19;19.90;49.60
18654;DHT22;9456;47.824;16.228;2023-05-10T13:30:48;19.90;50.40
18654;DHT22;9456;47.824;16.228;2023-05-10T13:33:17;20.00;50.70
18654;DHT22;9456;47.824;16.228;2023-05-10T13:35:46;20.00;51.20
18654;DHT22;9456;47.824;16.228;2023-05-10T13:38:15;20.10;49.40
18654;DHT22;9456;47.824;16.228;2023-05-10T13:40:44;20.10;48.00
18654;DHT22;9456;47.824;16.228;2023-05-10T13:43:13;20.30;49.90
18654;DHT22;9456;47.824;16.228;2023-05-10T13:45:42;20.10;49.70
18654;DHT22;9456;47.824;16.228;2023-05-10T13:48:10;19.80;50.10
18654;DHT22;9456;47.824;16.228;2023-05-10T13:50:39;19.50;49.00
18654;DHT22;9456;47.824;16.228;2023-05-10T13:53:08;19.30;49.50
18654;DHT22;9456;47.824;16.228;2023-05-10T13:55:37;19.00;50.10
18654;DHT22;9456;47.824;16.228;2023-05-10T13:58:06;19.00;51.40
18654;DHT22;9456;47.824;16.228;2023-05-10T14:00:35;19.10;52.20
18654;DHT22;9456;47.824;16.228;2023-05-10T14:03:04;19.10;52.40
18654;DHT22;9456;47.824;16.228;2023-05-10T14:05:33;19.30;51.80
18654;DHT22;9456;47.824;16.228;2023-05-10T14:08:02;19.50;52.20
18654;DHT22;9456;47.824;16.228;2023-05-10T14:10:31;19.60;51.50
18654;DHT22;9456;47.824;16.228;2023-05-10T14:13:00;19.70;50.80
18654;DHT22;9456;47.824;16.228;2023-05-10T14:15:29;19.70;50.60
18654;DHT22;9456;47.824;16.228;2023-05-10T14:17:59;19.80;49.60
18654;DHT22;9456;47.824;16.228;2023-05-10T14:20:28;19.70;50.00
18654;DHT22;9456;47.824;16.228;2023-05-10T14:22:57;19.60;50.10
18654;DHT22;9456;47.824;16.228;2023-05-10T14:25:25;19.40;50.50
18654;DHT22;9456;47.824;16.228;2023-05-10T14:27:54;19.40;50.90
18654;DHT22;9456;47.824;16.228;2023-05-10T14:30:24;19.50;52.40
18654;DHT22;9456;47.824;16.228;2023-05-10T14:32:53;19.40;53.30
18654;DHT22;9456;47.824;16.228;2023-05-10T14:35:23;19.40;53.10
18654;DHT22;9456;47.824;16.228;2023-05-10T14:37:51;19.30;53.00
18654;DHT22;9456;47.824;16.228;2023-05-10T14:40:21;19.20;53.40
18654;DHT22;9456;47.824;16.228;2023-05-10T14:42:50;19.20;53.60
18654;DHT22;9456;47.824;16.228;2023-05-10T14:45:19;19.00;53.20
18654;DHT22;9456;47.824;16.228;2023-05-10T14:47:48;18.90;53.60
18654;DHT22;9456;47.824;16.228;2023-05-10T14:50:17;18.70;53.00
18654;DHT22;9456;47.824;16.228;2023-05-10T14:52:46;18.60;53.50
18654;DHT22;9456;47.824;16.228;2023-05-10T14:55:16;18.50;54.10
18654;DHT22;9456;47.824;16.228;2023-05-10T14:57:45;18.50;54.10
18654;DHT22;9456;47.824;16.228;2023-05-10T15:00:15;18.50;54.90
18654;DHT22;9456;47.824;16.228;2023-05-10T15:02:44;18.60;53.90
18654;DHT22;9456;47.824;16.228;2023-05-10T15:05:14;18.70;52.80
18654;DHT22;9456;47.824;16.228;2023-05-10T15:07:43;18.80;52.00
18654;DHT22;9456;47.824;16.228;2023-05-10T15:10:12;18.80;51.30
18654;DHT22;9456;47.824;16.228;2023-05-10T15:12:41;18.70;51.50
18654;DHT22;9456;47.824;16.228;2023-05-10T15:15:10;18.60;51.80
18654;DHT22;9456;47.824;16.228;2023-05-10T15:17:41;18.70;51.60
18654;DHT22;9456;47.824;16.228;2023-05-10T15:20:11;18.70;51.10
18654;DHT22;9456;47.824;16.228;2023-05-10T15:22:40;18.70;50.20
18654;DHT22;9456;47.824;16.228;2023-05-10T15:25:10;18.70;50.70
18654;DHT22;9456;47.824;16.228;2023-05-10T15:27:39;18.60;50.00
18654;DHT22;9456;47.824;16.228;2023-05-10T15:30:10;18.60;50.10
18654;DHT22;9456;47.824;16.228;2023-05-10T15:32:39;18.60;49.90
18654;DHT22;9456;47.824;16.228;2023-05-10T15:35:08;18.60;49.80
18654;DHT22;9456;47.824;16.228;2023-05-10T15:37:38;18.60;50.50
18654;DHT22;9456;47.824;16.228;2023-05-10T15:40:09;18.50;50.80
18654;DHT22;9456;47.824;16.228;2023-05-10T15:42:38;18.50;51.70
18654;DHT22;9456;47.824;16.228;2023-05-10T15:45:08;18.50;52.20
18654;DHT22;9456;47.824;16.228;2023-05-10T15:47:38;18.50;52.20
18654;DHT22;9456;47.824;16.228;2023-05-10T15:50:09;18.40;52.20
18654;DHT22;9456;47.824;16.228;2023-05-10T15:52:38;18.30;52.90
18654;DHT22;9456;47.824;16.228;2023-05-10T15:55:09;18.20;53.00
18654;DHT22;9456;47.824;16.228;2023-05-10T15:57:38;18.20;53.40